Time;durP1;ratioP1;P1;durP2;ratioP2;P2;SDS_P1;SDS_P2;PMS_P1;PMS_P2;Temp;Humidity;BMP_temperature;BMP_pressure;BME280_temperature;BME280_humidity;BME280_pressure;Samples;Min_cycle;Max_cycle;Signal;HPM_P1;HPM_P2
2023/11/21 00:00:09;;;;;;;23.90;18.90;;;;;;;0.35;96.89;99367.72;103152;1257;98361;-72
2023/11/21 00:02:58;;;;;;;22.50;16.90;;;;;;;0.33;96.93;99366.36;102948;1260;137596;-73
2023/11/21 00:05:25;;;;;;;21.80;16.40;;;;;;;0.29;96.70;99371.01;103079;1257;97841;-72
2023/11/21 00:07:52;;;;;;;22.90;16.30;;;;;;;0.24;96.50;99374.63;102398;1257;1003621;-72
2023/11/21 00:10:19;;;;;;;22.00;16.70;;;;;;;0.18;96.47;99381.14;102233;1257;1003079;-71
2023/11/21 00:12:48;;;;;;;22.80;16.30;;;;;;;0.12;96.47;99382.70;103118;1257;97815;-73
2023/11/21 00:15:15;;;;;;;23.60;16.30;;;;;;;0.07;96.60;99388.54;102973;1257;138538;-72
2023/11/21 00:17:42;;;;;;;24.20;15.70;;;;;;;0.05;96.90;99389.58;103115;1256;97721;-73
2023/11/21 00:20:12;;;;;;;21.10;16.00;;;;;;;0.05;97.09;99391.64;103091;1257;111716;-73
2023/11/21 00:22:41;;;;;;;22.60;16.40;;;;;;;0.07;97.22;99396.74;102400;1257;1002733;-71
2023/11/21 00:25:10;;;;;;;21.90;16.30;;;;;;;0.08;97.14;99401.18;103190;1257;97791;-73
2023/11/21 00:27:37;;;;;;;25.00;17.20;;;;;;;0.10;97.21;99405.45;103271;1257;137522;-71
2023/11/21 00:30:06;;;;;;;26.00;17.50;;;;;;;0.12;97.07;99405.95;103147;1257;97814;-73
2023/11/21 00:32:33;;;;;;;25.50;18.90;;;;;;;0.12;96.88;99405.44;103433;1257;138400;-72
2023/11/21 00:35:00;;;;;;;25.60;18.20;;;;;;;0.06;96.68;99401.70;103130;1257;107676;-74
2023/11/21 00:37:28;;;;;;;27.10;18.20;;;;;;;0.03;96.53;99403.43;103131;1260;98291;-73
2023/11/21 00:39:54;;;;;;;29.90;18.20;;;;;;;0.00;96.77;99404.80;102933;1257;138582;-72
2023/11/21 00:42:22;;;;;;;26.70;16.80;;;;;;;-0.01;96.90;99404.45;103123;1260;97714;-73
2023/11/21 00:44:50;;;;;;;23.90;16.50;;;;;;;-0.04;97.05;99403.95;102202;1256;1003323;-72
2023/11/21 00:47:17;;;;;;;25.80;17.20;;;;;;;-0.05;96.94;99406.34;102279;1257;1003740;-72
2023/11/21 00:49:44;;;;;;;25.80;17.70;;;;;;;-0.05;97.22;99408.56;103101;1257;97758;-72
2023/11/21 00:52:11;;;;;;;27.20;17.70;;;;;;;-0.03;97.40;99407.36;103233;1257;139407;-72
2023/11/21 00:54:38;;;;;;;26.10;18.20;;;;;;;-0.04;97.18;99414.88;103138;1257;98097;-73
2023/11/21 00:57:05;;;;;;;24.40;17.80;;;;;;;-0.05;96.93;99416.77;103021;1260;138423;-72
2023/11/21 00:59:32;;;;;;;27.20;17.80;;;;;;;-0.06;97.16;99418.65;103099;1256;108220;-72
2023/11/21 01:02:00;;;;;;;24.50;17.60;;;;;;;-0.08;96.99;99414.22;102196;1256;1002844;-72
2023/11/21 01:04:27;;;;;;;22.10;16.80;;;;;;;-0.07;96.97;99413.86;102209;1260;1003095;-72
2023/11/21 01:06:54;;;;;;;23.20;18.00;;;;;;;-0.08;96.81;99414.90;103013;1257;97818;-72
2023/11/21 01:09:21;;;;;;;25.10;19.20;;;;;;;-0.08;96.88;99416.44;102834;1257;137809;-72
2023/11/21 01:11:47;;;;;;;25.50;19.70;;;;;;;-0.08;96.89;99419.34;102168;1262;1002924;-72
2023/11/21 01:14:14;;;;;;;28.50;20.40;;;;;;;-0.09;96.72;99423.61;102998;1257;138203;-73
2023/11/21 01:16:41;;;;;;;27.20;19.50;;;;;;;-0.13;96.63;99426.02;103074;1257;107765;-73
2023/11/21 01:19:09;;;;;;;28.50;19.30;;;;;;;-0.15;96.66;99428.94;102152;1257;1002610;-73
2023/11/21 01:21:36;;;;;;;26.90;20.30;;;;;;;-0.16;96.58;99432.88;102987;1260;139101;-72
2023/11/21 01:24:05;;;;;;;26.60;19.00;;;;;;;-0.17;96.66;99432.20;103009;1257;107318;-72
2023/11/21 01:26:34;;;;;;;23.10;18.00;;;;;;;-0.19;96.58;99436.78;103164;1257;138691;-71
2023/11/21 01:29:01;;;;;;;25.00;17.80;;;;;;;-0.22;96.60;99439.70;101581;1260;1003053;-72
2023/11/21 01:31:29;;;;;;;24.90;17.70;;;;;;;-0.22;96.64;99433.38;102307;1257;1002647;-74
2023/11/21 01:33:56;;;;;;;22.50;16.60;;;;;;;-0.20;96.50;99435.77;104032;1257;138916;-72
2023/11/21 01:36:23;;;;;;;26.30;17.80;;;;;;;-0.18;96.54;99433.72;103015;1260;107756;-72
2023/11/21 01:38:50;;;;;;;23.70;18.90;;;;;;;-0.14;96.45;99435.60;103024;1257;138052;-72
2023/11/21 01:41:17;;;;;;;26.40;19.30;;;;;;;-0.12;96.39;99437.13;103059;1260;107656;-74
2023/11/21 01:43:44;;;;;;;23.60;19.10;;;;;;;-0.09;96.37;99436.09;102971;1260;97753;-72
2023/11/21 01:46:11;;;;;;;23.80;19.80;;;;;;;-0.11;96.07;99437.30;102945;1260;137659;-73
2023/11/21 01:48:39;;;;;;;24.30;19.40;;;;;;;-0.16;95.94;99438.00;102334;1257;1002685;-73
2023/11/21 01:51:06;;;;;;;25.20;19.50;;;;;;;-0.17;95.91;99440.05;103015;1258;138690;-72
2023/11/21 01:53:34;;;;;;;27.30;19.20;;;;;;;-0.18;96.03;99441.77;103066;1256;107131;-72
2023/11/21 01:56:01;;;;;;;26.10;19.20;;;;;;;-0.17;96.07;99446.20;102315;1260;1015917;-72
2023/11/21 01:58:28;;;;;;;24.00;18.10;;;;;;;-0.17;96.06;99445.52;102833;1257;138600;-73
2023/11/21 02:00:56;;;;;;;25.10;18.70;;;;;;;-0.17;96.00;99444.66;102323;1257;1002818;-73
2023/11/21 02:03:22;;;;;;;24.60;17.70;;;;;;;-0.17;96.28;99437.66;103004;1258;139481;-73
2023/11/21 02:05:49;;;;;;;21.60;16.00;;;;;;;-0.13;96.20;99439.19;102942;1257;107620;-72
2023/11/21 02:08:16;;;;;;;23.50;16.40;;;;;;;-0.11;96.29;99432.00;102119;1262;1004123;-71
2023/11/21 02:10:43;;;;;;;21.50;17.20;;;;;;;-0.03;96.09;99436.07;103013;1257;109513;-72
2023/11/21 02:13:10;;;;;;;21.40;17.10;;;;;;;0.02;95.88;99434.70;101239;1257;1002966;-73
2023/11/21 02:15:38;;;;;;;23.40;18.20;;;;;;;0.06;95.75;99438.62;102936;1257;137832;-71
2023/11/21 02:18:05;;;;;;;22.70;18.30;;;;;;;0.05;95.34;99446.33;102861;1258;108243;-71
2023/11/21 02:20:34;;;;;;;26.30;18.80;;;;;;;-0.01;94.95;99451.80;102824;1259;137849;-71
2023/11/21 02:23:03;;;;;;;26.90;18.30;;;;;;;-0.11;94.70;99458.48;103103;1257;110680;-72
2023/11/21 02:25:32;;;;;;;25.50;18.20;;;;;;;-0.17;94.91;99454.39;102307;1257;1003129;-72
2023/11/21 02:28:02;;;;;;;23.70;17.70;;;;;;;-0.24;94.79;99464.82;101378;1258;1016124;-72
2023/11/21 02:30:31;;;;;;;20.50;15.90;;;;;;;-0.29;94.95;99466.54;103699;1258;107316;-72
2023/11/21 02:32:58;;;;;;;21.00;16.70;;;;;;;-0.36;94.74;99464.49;102920;1257;138891;-72
2023/11/21 02:35:26;;;;;;;22.50;16.80;;;;;;;-0.41;94.85;99461.25;102909;1258;111596;-72
2023/11/21 02:37:54;;;;;;;21.30;16.60;;;;;;;-0.44;95.00;99461.42;103025;1258;1002478;-71
2023/11/21 02:40:21;;;;;;;22.20;16.60;;;;;;;-0.45;95.24;99457.33;102148;1258;1002603;-71
2023/11/21 02:42:50;;;;;;;19.90;15.80;;;;;;;-0.45;95.47;99462.28;102246;1261;1002912;-71
2023/11/21 02:45:18;;;;;;;22.60;16.40;;;;;;;-0.46;95.38;99465.35;103334;1258;138861;-72
2023/11/21 02:47:45;;;;;;;19.90;16.20;;;;;;;-0.48;95.36;99468.77;102969;1261;110883;-71
2023/11/21 02:50:13;;;;;;;22.10;16.60;;;;;;;-0.49;95.22;99471.67;102929;1257;140390;-69
2023/11/21 02:52:40;;;;;;;21.10;16.40;;;;;;;-0.53;95.08;99471.85;101471;1258;1003197;-71
2023/11/21 02:55:09;;;;;;;19.70;15.20;;;;;;;-0.54;95.15;99476.95;103037;1258;109237;-71
2023/11/21 02:57:36;;;;;;;21.30;16.40;;;;;;;-0.55;95.30;99473.54;103478;1259;139338;-71
2023/11/21 03:00:07;;;;;;;21.80;16.20;;;;;;;-0.54;95.46;99476.10;103005;1261;111973;-71
2023/11/21 03:02:38;;;;;;;21.50;16.00;;;;;;;-0.52;95.47;99476.45;103472;1254;138731;-71
2023/11/21 03:05:08;;;;;;;22.70;16.30;;;;;;;-0.49;95.42;99474.41;103308;1259;97911;-71
2023/11/21 03:07:36;;;;;;;21.00;16.90;;;;;;;-0.45;95.57;99471.66;103396;1254;107328;-72
2023/11/21 03:10:04;;;;;;;22.50;17.30;;;;;;;-0.40;95.52;99473.02;103101;1257;138710;-71
2023/11/21 03:12:30;;;;;;;24.50;18.30;;;;;;;-0.37;95.53;99477.65;103264;1253;112079;-72
2023/11/21 03:14:57;;;;;;;23.00;17.50;;;;;;;-0.36;95.41;99476.09;102295;1259;1016047;-71
2023/11/21 03:17:24;;;;;;;22.90;17.30;;;;;;;-0.37;95.18;99477.98;103343;1258;97783;-72
2023/11/21 03:19:52;;;;;;;20.10;16.50;;;;;;;-0.38;95.03;99478.83;103267;1254;107577;-71
2023/11/21 03:22:19;;;;;;;23.90;16.90;;;;;;;-0.42;94.80;99477.13;102507;1254;1002993;-71
2023/11/21 03:24:46;;;;;;;22.40;17.10;;;;;;;-0.44;94.79;99477.48;103254;1254;110896;-71
2023/11/21 03:27:12;;;;;;;23.30;17.10;;;;;;;-0.50;94.64;99485.85;102408;1259;1002925;-71
2023/11/21 03:29:40;;;;;;;21.20;16.20;;;;;;;-0.54;94.59;99487.04;103186;1260;97911;-71
2023/11/21 03:32:08;;;;;;;22.30;16.30;;;;;;;-0.58;94.81;99489.93;103150;1254;108928;-71
2023/11/21 03:34:35;;;;;;;21.40;16.10;;;;;;;-0.59;94.90;99486.86;103012;1254;1003443;-72
2023/11/21 03:37:02;;;;;;;21.90;16.50;;;;;;;-0.58;95.07;99487.20;103342;1254;111334;-72
2023/11/21 03:39:29;;;;;;;23.90;17.90;;;;;;;-0.56;95.30;99487.02;103862;1254;138155;-73
2023/11/21 03:41:56;;;;;;;23.00;18.40;;;;;;;-0.54;95.36;99488.39;103565;1254;97854;-72
2023/11/21 03:44:23;;;;;;;25.10;18.40;;;;;;;-0.53;95.41;99490.97;103357;1253;138137;-72
2023/11/21 03:46:51;;;;;;;24.90;18.50;;;;;;;-0.56;95.13;99490.94;103358;1253;97807;-72
2023/11/21 03:49:18;;;;;;;23.20;17.80;;;;;;;-0.64;94.97;99495.23;103365;1253;110932;-72
2023/11/21 03:51:45;;;;;;;24.40;17.70;;;;;;;-0.69;95.10;99499.50;102459;1253;1002890;-72
2023/11/21 03:54:12;;;;;;;23.40;17.70;;;;;;;-0.70;95.65;99502.06;103480;1257;97788;-71
2023/11/21 03:56:39;;;;;;;24.50;18.00;;;;;;;-0.70;95.72;99504.61;103825;1253;138650;-73
2023/11/21 03:59:06;;;;;;;22.40;16.70;;;;;;;-0.69;95.79;99511.10;104353;1254;96409;-73
2023/11/21 04:01:32;;;;;;;20.90;16.20;;;;;;;-0.69;95.90;99514.85;103591;1254;111354;-73
2023/11/21 04:03:59;;;;;;;19.90;16.30;;;;;;;-0.61;96.43;99523.05;104112;1254;138528;-73
2023/11/21 04:06:26;;;;;;;18.00;13.40;;;;;;;-0.56;96.06;99525.61;103268;1254;1003045;-72
2023/11/21 04:08:53;;;;;;;16.10;14.00;;;;;;;-0.57;95.71;99526.46;104220;1255;138650;-72
2023/11/21 04:11:20;;;;;;;20.10;14.90;;;;;;;-0.56;95.66;99527.66;103870;1254;96360;-73
2023/11/21 04:13:47;;;;;;;18.90;13.80;;;;;;;-0.55;95.66;99525.10;103383;1255;111977;-73
2023/11/21 04:16:14;;;;;;;18.00;13.70;;;;;;;-0.56;95.44;99520.48;103169;1254;138567;-72
2023/11/21 04:18:41;;;;;;;15.10;12.00;;;;;;;-0.59;95.32;99522.71;103517;1254;97819;-72
2023/11/21 04:21:09;;;;;;;15.50;13.00;;;;;;;-0.61;95.32;99523.23;103648;1256;138502;-72
2023/11/21 04:23:36;;;;;;;16.10;12.60;;;;;;;-0.59;95.32;99523.05;103877;1254;97912;-72
2023/11/21 04:26:03;;;;;;;15.20;12.30;;;;;;;-0.63;94.88;99525.45;103301;1254;111629;-72
2023/11/21 04:28:30;;;;;;;14.10;11.60;;;;;;;-0.69;94.67;99526.82;103717;1254;138354;-73
2023/11/21 04:30:57;;;;;;;16.70;12.70;;;;;;;-0.74;94.65;99529.34;103559;1254;98649;-73
2023/11/21 04:33:25;;;;;;;13.30;10.80;;;;;;;-0.79;94.71;99536.16;103192;1255;138384;-73
2023/11/21 04:35:52;;;;;;;16.50;11.80;;;;;;;-0.82;94.77;99538.73;103945;1254;97841;-72
2023/11/21 04:38:18;;;;;;;15.90;12.30;;;;;;;-0.85;94.90;99538.22;103911;1256;138671;-72
2023/11/21 04:40:45;;;;;;;15.40;11.60;;;;;;;-0.87;95.13;99545.38;103227;1253;107467;-72
2023/11/21 04:43:12;;;;;;;15.90;12.20;;;;;;;-0.85;95.33;99551.52;101877;1254;1003734;-73
2023/11/21 04:45:41;;;;;;;15.00;12.50;;;;;;;-0.83;95.30;99556.81;103676;1253;138832;-70
2023/11/21 04:48:08;;;;;;;16.30;13.30;;;;;;;-0.79;95.75;99553.41;103767;1254;96246;-73
2023/11/21 04:50:35;;;;;;;17.70;13.80;;;;;;;-0.74;95.72;99557.85;103348;1258;137883;-72
2023/11/21 04:53:02;;;;;;;19.90;13.80;;;;;;;-0.70;95.57;99554.81;103611;1254;106873;-72
2023/11/21 04:55:29;;;;;;;17.90;12.90;;;;;;;-0.73;95.27;99551.55;103841;1254;97804;-71
2023/11/21 04:57:56;;;;;;;15.60;10.90;;;;;;;-0.76;95.11;99552.04;103566;1254;139641;-71
2023/11/21 05:00:23;;;;;;;14.90;11.20;;;;;;;-0.75;95.03;99550.16;103813;1254;97951;-72
2023/11/21 05:02:50;;;;;;;15.30;10.50;;;;;;;-0.75;95.30;99547.77;103223;1254;1003251;-73
2023/11/21 05:05:17;;;;;;;13.10;11.30;;;;;;;-0.71;95.38;99555.15;103687;1254;108147;-72
2023/11/21 05:07:45;;;;;;;16.70;12.30;;;;;;;-0.68;95.11;99554.46;102779;1254;1003981;-73
2023/11/21 05:10:14;;;;;;;15.50;12.60;;;;;;;-0.70;94.74;99560.10;103234;1253;138271;-72
2023/11/21 05:12:42;;;;;;;15.60;12.30;;;;;;;-0.73;94.54;99564.19;103343;1254;97782;-71
2023/11/21 05:15:14;;;;;;;15.00;11.80;;;;;;;-0.72;94.81;99569.48;102520;1254;1002847;-72
2023/11/21 05:17:42;;;;;;;16.00;12.40;;;;;;;-0.75;94.84;99569.45;104270;1256;106179;-70
2023/11/21 05:20:17;;;;;;;14.70;11.70;;;;;;;-0.77;94.74;99572.52;103349;1259;140931;-71
2023/11/21 05:22:45;;;;;;;14.90;11.00;;;;;;;-0.78;94.77;99570.65;102225;1254;1003139;-72
2023/11/21 05:25:12;;;;;;;13.10;10.80;;;;;;;-0.77;94.94;99572.86;102397;1254;1003003;-72
2023/11/21 05:27:39;;;;;;;16.30;11.00;;;;;;;-0.73;95.14;99578.35;103247;1254;139259;-72
2023/11/21 05:30:09;;;;;;;12.30;10.10;;;;;;;-0.67;95.24;99585.02;103372;1254;108440;-72
2023/11/21 05:32:36;;;;;;;14.10;10.80;;;;;;;-0.62;95.21;99589.13;103386;1254;139102;-71
2023/11/21 05:35:03;;;;;;;12.20;9.90;;;;;;;-0.56;95.14;99589.81;102607;1254;1003725;-71
2023/11/21 05:37:30;;;;;;;15.70;11.00;;;;;;;-0.53;94.78;99594.45;103395;1253;97698;-72
2023/11/21 05:39:57;;;;;;;13.00;10.70;;;;;;;-0.54;94.59;99593.23;103299;1254;138004;-71
2023/11/21 05:42:24;;;;;;;16.10;11.60;;;;;;;-0.56;94.25;99595.96;103172;1260;108022;-72
2023/11/21 05:44:51;;;;;;;13.00;10.60;;;;;;;-0.66;93.98;99595.61;101755;1254;1005054;-76
2023/11/21 05:47:18;;;;;;;12.40;10.00;;;;;;;-0.70;93.75;99597.99;102645;1257;1003539;-75
2023/11/21 05:49:50;;;;;;;12.70;9.40;;;;;;;-0.73;93.79;99601.73;103383;1254;97822;-77
2023/11/21 05:52:17;;;;;;;11.90;8.90;;;;;;;-0.77;93.78;99605.64;103292;1254;138272;-77
2023/11/21 05:54:44;;;;;;;11.10;9.40;;;;;;;-0.81;93.64;99608.36;102579;1254;1002920;-78
2023/11/21 05:57:11;;;;;;;12.70;9.60;;;;;;;-0.88;93.68;99608.86;103301;1254;1002942;-79
2023/11/21 05:59:38;;;;;;;12.80;9.60;;;;;;;-0.93;93.66;99611.89;102602;1254;1003751;-79
2023/11/21 06:02:05;;;;;;;13.50;10.60;;;;;;;-0.97;93.82;99613.41;102544;1258;1003411;-74
2023/11/21 06:04:32;;;;;;;12.40;10.60;;;;;;;-1.01;93.91;99615.80;102625;1253;1003133;-73
2023/11/21 06:07:00;;;;;;;13.70;10.80;;;;;;;-1.06;93.92;99619.35;102815;1254;1003696;-74
2023/11/21 06:09:27;;;;;;;16.20;11.60;;;;;;;-1.09;94.28;99619.33;103253;1256;139072;-75
2023/11/21 06:11:54;;;;;;;13.30;9.20;;;;;;;-1.05;94.64;99622.95;102636;1253;1003544;-71
2023/11/21 06:14:21;;;;;;;12.10;9.50;;;;;;;-1.02;94.58;99627.05;101779;1254;1003745;-73
2023/11/21 06:16:50;;;;;;;15.20;10.20;;;;;;;-0.98;94.89;99629.12;103394;1253;111053;-75
2023/11/21 06:19:18;;;;;;;14.40;10.10;;;;;;;-0.93;94.81;99636.80;103280;1258;108174;-74
2023/11/21 06:21:47;;;;;;;13.00;10.40;;;;;;;-0.90;94.59;99638.86;103224;1254;137921;-75
2023/11/21 06:24:15;;;;;;;14.40;11.10;;;;;;;-0.89;94.65;99646.40;102524;1254;1003405;-74
2023/11/21 06:26:42;;;;;;;16.80;11.80;;;;;;;-0.87;94.67;99643.68;103271;1256;138434;-75
2023/11/21 06:29:09;;;;;;;16.30;12.90;;;;;;;-0.85;94.92;99645.39;102676;1254;1003752;-75
2023/11/21 06:31:35;;;;;;;16.80;11.80;;;;;;;-0.86;94.87;99647.09;102626;1254;1003010;-71
2023/11/21 06:34:03;;;;;;;14.70;10.60;;;;;;;-0.85;94.80;99649.31;102609;1254;1002347;-74
2023/11/21 06:36:30;;;;;;;12.70;10.00;;;;;;;-0.84;94.80;99648.64;103360;1254;107572;-71
2023/11/21 06:38:57;;;;;;;13.40;9.90;;;;;;;-0.79;95.05;99649.16;102337;1254;1003135;-71
2023/11/21 06:41:24;;;;;;;13.20;9.90;;;;;;;-0.74;94.88;99648.67;103323;1254;111066;-71
2023/11/21 06:43:51;;;;;;;13.10;10.40;;;;;;;-0.70;94.87;99648.88;102458;1254;1002950;-71
2023/11/21 06:46:19;;;;;;;14.90;11.60;;;;;;;-0.68;94.51;99656.05;103176;1254;138351;-71
2023/11/21 06:48:46;;;;;;;15.10;11.10;;;;;;;-0.68;94.34;99657.23;103344;1258;108282;-69
2023/11/21 06:51:14;;;;;;;15.90;11.80;;;;;;;-0.70;94.27;99662.70;103244;1254;137829;-71
2023/11/21 06:53:41;;;;;;;13.80;10.90;;;;;;;-0.75;94.00;99666.07;103323;1259;111324;-71
2023/11/21 06:56:17;;;;;;;15.80;10.50;;;;;;;-0.79;94.23;99672.72;103189;1256;107168;-72
2023/11/21 06:58:45;;;;;;;13.80;9.90;;;;;;;-0.80;94.26;99676.30;102677;1254;1002883;-70
2023/11/21 07:01:12;;;;;;;15.60;9.60;;;;;;;-0.80;94.56;99679.04;103263;1254;107467;-70
2023/11/21 07:03:39;;;;;;;12.40;10.60;;;;;;;-0.75;94.76;99682.29;103191;1254;138196;-70
2023/11/21 07:06:07;;;;;;;13.90;10.90;;;;;;;-0.72;94.66;99684.88;103384;1258;111631;-70
2023/11/21 07:08:34;;;;;;;14.70;11.00;;;;;;;-0.71;94.48;99687.28;103651;1253;138007;-70
2023/11/21 07:11:02;;;;;;;15.70;11.70;;;;;;;-0.72;94.42;99693.75;103361;1253;97792;-70
2023/11/21 07:13:30;;;;;;;15.80;12.20;;;;;;;-0.70;94.48;99694.79;103501;1253;107753;-70
2023/11/21 07:15:57;;;;;;;17.90;12.20;;;;;;;-0.71;94.64;99692.57;103242;1257;384308;-70
2023/11/21 07:18:24;;;;;;;15.50;11.20;;;;;;;-0.71;94.62;99695.65;102686;1254;1003262;-70
2023/11/21 07:20:51;;;;;;;15.10;11.40;;;;;;;-0.68;94.70;99693.09;103423;1254;140770;-70
2023/11/21 07:23:18;;;;;;;15.00;10.70;;;;;;;-0.66;94.67;99691.05;103431;1258;97685;-70
2023/11/21 07:25:45;;;;;;;14.90;11.70;;;;;;;-0.58;94.54;99697.38;103276;1254;107285;-71
2023/11/21 07:28:12;;;;;;;14.80;11.30;;;;;;;-0.58;94.19;99700.97;102820;1254;1003016;-70
2023/11/21 07:30:39;;;;;;;15.60;12.10;;;;;;;-0.58;94.02;99706.77;102535;1258;1002925;-70
2023/11/21 07:33:07;;;;;;;15.10;12.60;;;;;;;-0.60;93.85;99708.64;102399;1256;1002964;-70
2023/11/21 07:35:34;;;;;;;18.00;13.20;;;;;;;-0.62;93.84;99710.18;103476;1253;97795;-69
2023/11/21 07:38:01;;;;;;;19.60;12.90;;;;;;;-0.67;93.94;99708.98;103350;1254;107599;-69
2023/11/21 07:40:32;;;;;;;16.80;12.30;;;;;;;-0.70;93.68;99707.93;103200;1259;138549;-69
2023/11/21 07:42:59;;;;;;;16.30;11.10;;;;;;;-0.78;93.36;99709.08;103320;1254;112262;-71
2023/11/21 07:45:28;;;;;;;15.00;10.80;;;;;;;-0.84;93.31;99710.25;103186;1253;138618;-71
2023/11/21 07:47:56;;;;;;;15.50;10.40;;;;;;;-0.87;93.46;99710.76;102660;1254;1002940;-69
2023/11/21 07:50:23;;;;;;;13.90;10.20;;;;;;;-0.85;94.38;99709.73;104253;1254;139204;-69
2023/11/21 07:52:50;;;;;;;15.00;11.10;;;;;;;-0.78;94.14;99708.73;103164;1254;1003640;-69
2023/11/21 07:55:18;;;;;;;15.10;11.20;;;;;;;-0.72;94.14;99714.23;104562;1254;111080;-70
2023/11/21 07:57:44;;;;;;;18.40;11.50;;;;;;;-0.67;94.23;99712.39;102978;1257;138641;-69
2023/11/21 08:00:15;;;;;;;17.00;12.00;;;;;;;-0.63;94.12;99715.64;103278;1254;97820;-69
2023/11/21 08:02:45;;;;;;;16.60;12.30;;;;;;;-0.62;93.75;99716.34;103161;1254;1003408;-70
2023/11/21 08:05:13;;;;;;;16.20;12.10;;;;;;;-0.67;93.27;99716.14;103406;1254;97670;-71
2023/11/21 08:07:50;;;;;;;16.10;11.60;;;;;;;-0.68;93.45;99722.29;102131;1256;1003406;-69
2023/11/21 08:10:17;;;;;;;14.70;11.00;;;;;;;-0.63;94.02;99721.80;103542;1255;138934;-72
2023/11/21 08:12:44;;;;;;;15.00;10.90;;;;;;;-0.57;94.20;99722.84;104511;1254;96262;-70
2023/11/21 08:15:12;;;;;;;15.30;11.50;;;;;;;-0.45;94.33;99730.40;103342;1256;138451;-71
2023/11/21 08:17:39;;;;;;;18.00;13.90;;;;;;;-0.35;94.24;99729.25;104538;1254;96499;-70
2023/11/21 08:20:08;;;;;;;19.20;13.80;;;;;;;-0.28;93.90;99727.05;103031;1255;1003309;-71
2023/11/21 08:22:36;;;;;;;20.10;13.60;;;;;;;-0.24;93.53;99726.54;103505;1254;1003039;-70
2023/11/21 08:25:04;;;;;;;17.10;13.20;;;;;;;-0.19;93.29;99727.57;103904;1255;1002518;-70
2023/11/21 08:27:31;;;;;;;20.20;13.40;;;;;;;-0.18;93.19;99729.48;103620;1256;138113;-71
2023/11/21 08:29:58;;;;;;;17.00;11.80;;;;;;;-0.18;92.88;99733.91;103445;1254;1003079;-71
2023/11/21 08:32:25;;;;;;;15.10;11.60;;;;;;;-0.17;92.86;99739.56;104582;1254;139046;-70
2023/11/21 08:34:51;;;;;;;15.20;11.30;;;;;;;-0.15;92.74;99741.63;102564;1254;1003197;-71
2023/11/21 08:37:20;;;;;;;13.60;10.50;;;;;;;-0.11;92.54;99744.53;103997;1259;98054;-71
2023/11/21 08:39:48;;;;;;;15.60;11.30;;;;;;;-0.04;92.44;99746.59;103220;1257;138317;-70
2023/11/21 08:42:15;;;;;;;15.90;11.40;;;;;;;0.02;92.25;99753.46;103644;1259;98001;-71
2023/11/21 08:44:42;;;;;;;18.30;13.00;;;;;;;0.04;91.86;99755.17;103607;1256;138292;-71
2023/11/21 08:47:08;;;;;;;17.70;13.30;;;;;;;0.03;91.70;99751.75;103190;1256;1003012;-70
2023/11/21 08:49:36;;;;;;;15.90;12.50;;;;;;;0.05;91.92;99757.90;103509;1254;97875;-70
2023/11/21 08:52:04;;;;;;;20.70;14.00;;;;;;;0.04;91.79;99763.02;103204;1254;137853;-71
2023/11/21 08:54:31;;;;;;;18.10;14.10;;;;;;;0.02;91.95;99758.41;103955;1256;96142;-71
2023/11/21 08:56:58;;;;;;;20.20;13.80;;;;;;;0.03;91.97;99761.48;103219;1255;138490;-70
2023/11/21 08:59:26;;;;;;;16.50;12.80;;;;;;;0.05;92.34;99760.46;103200;1254;108274;-71
2023/11/21 09:01:53;;;;;;;19.00;13.50;;;;;;;0.10;92.51;99765.27;103258;1256;97890;-71
2023/11/21 09:04:20;;;;;;;19.70;13.30;;;;;;;0.13;92.40;99770.39;103167;1255;138219;-68
2023/11/21 09:06:46;;;;;;;20.40;12.40;;;;;;;0.21;92.93;99772.47;103204;1259;97812;-72
2023/11/21 09:09:13;;;;;;;16.80;12.60;;;;;;;0.33;93.02;99777.10;103230;1256;137923;-69
2023/11/21 09:11:40;;;;;;;18.20;13.40;;;;;;;0.39;92.43;99780.55;103317;1253;108637;-70
2023/11/21 09:14:08;;;;;;;18.90;13.50;;;;;;;0.43;91.80;99786.36;103346;1254;97788;-72
2023/11/21 09:16:35;;;;;;;18.80;14.00;;;;;;;0.44;91.30;99786.35;102597;1253;1003566;-70
2023/11/21 09:19:05;;;;;;;19.60;14.00;;;;;;;0.42;91.15;99786.52;103378;1255;97591;-70
2023/11/21 09:21:32;;;;;;;20.70;14.30;;;;;;;0.42;91.02;99787.89;102419;1253;1003000;-69
2023/11/21 09:23:59;;;;;;;22.10;14.70;;;;;;;0.44;90.87;99787.04;102479;1254;1002733;-70
2023/11/21 09:26:27;;;;;;;17.60;13.70;;;;;;;0.41;90.56;99790.63;104109;1255;138929;-69
2023/11/21 09:28:56;;;;;;;19.90;13.70;;;;;;;0.39;90.44;99785.33;103335;1255;109442;-71
2023/11/21 09:31:24;;;;;;;17.80;13.20;;;;;;;0.37;90.36;99785.67;102594;1258;1003048;-70
2023/11/21 09:33:51;;;;;;;17.80;13.50;;;;;;;0.38;90.57;99788.92;102440;1254;1003034;-70
2023/11/21 09:36:18;;;;;;;19.30;13.00;;;;;;;0.40;90.57;99790.30;103265;1256;107430;-70
2023/11/21 09:38:44;;;;;;;18.30;12.20;;;;;;;0.41;90.50;99789.44;102499;1257;1003496;-70
2023/11/21 09:41:22;;;;;;;18.40;11.90;;;;;;;0.49;90.93;99790.29;103372;1255;108042;-70
2023/11/21 09:43:52;;;;;;;18.70;12.80;;;;;;;0.61;91.25;99783.80;103880;1254;97731;-72
2023/11/21 09:46:23;;;;;;;20.40;13.50;;;;;;;0.68;90.80;99786.54;103560;1253;138555;-72
2023/11/21 09:48:52;;;;;;;18.10;13.50;;;;;;;0.70;90.31;99785.68;103670;1253;107021;-68
2023/11/21 09:51:23;;;;;;;18.80;13.30;;;;;;;0.72;90.36;99783.48;103287;1256;137928;-70
2023/11/21 09:53:53;;;;;;;19.80;13.90;;;;;;;0.77;90.41;99785.36;103611;1257;107895;-70
2023/11/21 09:56:23;;;;;;;20.70;13.40;;;;;;;0.80;90.11;99790.66;103589;1254;97806;-71
2023/11/21 09:58:53;;;;;;;18.90;13.40;;;;;;;0.79;89.54;99790.84;103336;1256;110772;-72
2023/11/21 10:01:22;;;;;;;18.20;13.40;;;;;;;0.74;89.04;99791.01;103699;1255;106272;-70
2023/11/21 10:03:49;;;;;;;20.70;13.20;;;;;;;0.69;89.14;99790.64;103748;1255;1002925;-73
2023/11/21 10:06:18;;;;;;;17.40;12.00;;;;;;;0.68;89.37;99795.27;104559;1255;107936;-72
2023/11/21 10:08:46;;;;;;;17.60;12.10;;;;;;;0.74;89.69;99797.67;103580;1255;138695;-71
2023/11/21 10:11:25;;;;;;;16.40;12.40;;;;;;;0.79;89.45;99802.64;103605;1254;110815;-71
2023/11/21 10:13:57;;;;;;;16.70;12.60;;;;;;;0.85;89.46;99804.85;103304;1256;107837;-70
2023/11/21 10:16:26;;;;;;;18.00;12.90;;;;;;;0.89;89.21;99807.94;103563;1257;137758;-71
2023/11/21 10:18:55;;;;;;;19.70;13.30;;;;;;;0.91;88.75;99807.95;102882;1257;1002931;-72
2023/11/21 10:21:37;;;;;;;21.40;14.20;;;;;;;0.94;88.77;99807.77;103241;1258;138027;-73
2023/11/21 10:24:04;;;;;;;18.60;14.40;;;;;;;0.97;88.68;99807.27;101854;1258;1003178;-72
2023/11/21 10:26:33;;;;;;;19.20;14.30;;;;;;;0.95;88.51;99808.13;103180;1258;1003058;-73
2023/11/21 10:29:18;;;;;;;19.70;14.50;;;;;;;0.90;88.05;99805.39;103413;1257;97893;-73
2023/11/21 10:31:46;;;;;;;19.50;14.50;;;;;;;0.82;87.76;99806.23;102646;1258;1003023;-71
2023/11/21 10:34:18;;;;;;;23.90;15.20;;;;;;;0.76;88.02;99809.83;103206;1256;138482;-73
2023/11/21 10:36:45;;;;;;;18.60;13.60;;;;;;;0.76;88.48;99803.84;102665;1258;1002759;-72
2023/11/21 10:39:17;;;;;;;18.60;13.30;;;;;;;0.79;88.53;99805.38;103232;1255;139437;-73
2023/11/21 10:41:45;;;;;;;16.40;12.60;;;;;;;0.82;88.36;99804.69;101865;1255;1003628;-72
2023/11/21 10:44:14;;;;;;;19.80;14.50;;;;;;;0.88;88.84;99814.44;103724;1255;108170;-70
2023/11/21 10:46:43;;;;;;;23.30;14.80;;;;;;;0.94;88.81;99819.24;104471;1255;139293;-70
2023/11/21 10:49:11;;;;;;;22.90;15.60;;;;;;;0.99;88.97;99821.63;103742;1253;1003049;-70
2023/11/21 10:51:38;;;;;;;19.40;14.80;;;;;;;1.03;88.76;99824.02;102406;1253;1002616;-75
2023/11/21 10:54:05;;;;;;;22.90;14.90;;;;;;;0.96;88.04;99824.72;102632;1258;1003304;-76
2023/11/21 10:56:35;;;;;;;18.50;14.40;;;;;;;0.93;88.11;99825.76;103979;1256;138308;-75
2023/11/21 10:59:02;;;;;;;21.10;14.30;;;;;;;0.87;88.09;99820.27;103375;1256;96472;-74
2023/11/21 11:01:32;;;;;;;22.20;14.20;;;;;;;0.83;87.75;99826.59;103495;1254;109556;-76
2023/11/21 11:03:59;;;;;;;20.60;13.10;;;;;;;0.81;88.24;99826.94;104407;1254;138591;-75
2023/11/21 11:06:28;;;;;;;18.50;13.50;;;;;;;0.85;88.17;99828.81;103416;1256;98293;-74